Aérodrome :
LOGIN :

S'inscrire | Disclaimer

   EN    FR    IT 

 










Légende :    VFR   VFR Marginal   IFR   IFR Intensif   IFR Très Intensif
Visi : 
Plafond : 
>= 8 km
>= 3000ft
5 à 8 km
1000 à 3000 ft
1500m à 5 km
500 à 1000 ft
800 à 1500m
200 à 500 ft
< 800m
< 200 ft
Symboles :   Orages  Brouillard  Fortes neiges  Fortes précipitations  Vent > 20 kt
SIGMETs :   Divers  Orages  Givrage  Turbulence  Onde Orograph.  Cendres Volcan.






- Altitude de l'aérodrome : 121 ft
- Code IATA : HUY


EGNJ - Humberside

DERNIER METAR :
  • 301550Z 19006KT 140V230 9999 FEW032 SCT045 20/08 Q1010

METARs EXPIRÉS :
  • 301520Z 20005KT 150V250 9999 FEW028 SCT042 21/08 Q1010
  • 301450Z 21005KT 130V250 9999 FEW023 SCT042 20/09 Q1010
  • 301420Z 25003KT 160V310 9999 SCT023 BKN039 20/10 Q1010
  • 301350Z 23008KT 9999 SCT023 BKN039 19/10 Q1010
  • 301320Z VRB03KT 9999 SCT025 BKN040 20/09 Q1010

TAF TAF EGNJ
Valide du 30 à 15h jusqu'au 01 à 00h UTC


301400Z 3015/3024 20007KT 9999 SCT040
PROB30
TEMPO 3015/3021 8000 SHRA
ATIS : +44 1652 682 020



MET'MAP, la Météo Aéronautique d'un coup d'oeil ! - Copyright ORBIFLY Décembre 2007 - Disclaimer

ORBIFLY MET'MAP TEAM :

Programmation & Développement : Alexandra Zaïnal
Sur une idée originale de : Baudouin d'Aumeries
Soutien technique & logistique : Manuel Goepfert
Assistance : Marc-Olivier Méhu




SOURCES & CREDITS :

   NOAA